El Tempranillo — PI6362 — position and weather

sailwx.info

Track history (hours):
 
Tides and Currents Weather Stations Pressure Air Temp Water Temp Dewpoint Dewpoint Depression Visibility Wind Speed Wind Dir Waves Ship Positions

El Tempranillo

Last reported at 2017-Nov-20 00:24 UTC. Time now 2018-Jan-21 10:16 UTC.
Position N 37°58' W 000°41'.
Warning: this ship's position is months out of date.

Length 14 m.

Type: Cargo ship. MMSI: 244770790.

Date/timePositionNaut miles runAvg speedWind from/ knotsBaromVisibWave heightAir tempDewpointWater temp
2017-Nov-20 00:24N 37°58' W 000°41'0 0.0
2017-Nov-19 23:48N 37°58' W 000°41'0 0.0
2017-Nov-19 23:24N 37°58' W 000°41'0 0.0
2017-Nov-19 22:57N 37°58' W 000°41'0 0.0
2017-Nov-19 22:30N 37°58' W 000°41'0 0.0
2017-Nov-19 21:57N 37°58' W 000°41'0 0.0
2017-Nov-19 21:24N 37°58' W 000°41'0 0.0
2017-Nov-19 20:57N 37°58' W 000°41'0 0.0
2017-Nov-19 20:30N 37°58' W 000°41'0 0.0
2017-Nov-19 19:48N 37°58' W 000°41'0 0.0
2017-Nov-19 18:51N 37°58' W 000°41'0 0.0
2017-Nov-19 18:24N 37°58' W 000°41'0 0.0
2017-Nov-19 17:54N 37°58' W 000°41'0 0.0
2017-Nov-19 17:30N 37°58' W 000°41'0 0.0
2017-Nov-19 16:54N 37°58' W 000°41'0 0.0
2017-Nov-19 16:18N 37°58' W 000°41'0 0.0
2017-Nov-19 15:57N 37°58' W 000°41'0 0.0
2017-Nov-19 15:30N 37°58' W 000°41'0 0.0
2017-Nov-19 15:00N 37°58' W 000°41'0 0.0
2017-Nov-19 14:30N 37°58' W 000°41'0 0.0
2017-Nov-19 13:45N 37°58' W 000°41'0 0.0
2017-Nov-19 13:30N 37°58' W 000°41'0 0.0
2017-Nov-19 12:57N 37°58' W 000°41'0 0.0
2017-Nov-19 12:27N 37°58' W 000°41'0 0.0
2017-Nov-19 12:00N 37°58' W 000°41'17 7.2
2017-Nov-19 09:38N 37°42' W 000°48'0 0.3
2017-Nov-19 08:33N 37°42' W 000°48'0 0.0
2017-Nov-19 08:15N 37°42' W 000°48'0 0.0
2017-Nov-19 06:51N 37°42' W 000°48'0 0.0
2017-Nov-19 05:03N 37°42' W 000°48'0 0.0
2017-Nov-19 04:51N 37°42' W 000°48'0 0.0
2017-Nov-19 03:21N 37°42' W 000°48'0 0.0
2017-Nov-19 02:51N 37°42' W 000°48'0 0.0
2017-Nov-19 02:09N 37°42' W 000°48'0 0.0
2017-Nov-19 01:39N 37°42' W 000°48'0 0.0
2017-Nov-19 01:27N 37°42' W 000°48'0 0.0
2017-Nov-19 00:45N 37°42' W 000°48'0 0.0
2017-Nov-19 00:27N 37°42' W 000°48'0 0.0
2017-Nov-18 23:39N 37°42' W 000°48'0 0.0
2017-Nov-18 23:27N 37°42' W 000°48'0 0.0
2017-Nov-18 22:51N 37°42' W 000°48'0 0.0
2017-Nov-18 21:33N 37°42' W 000°48'0 0.0
2017-Nov-18 21:27N 37°42' W 000°48'0 0.0
2017-Nov-18 20:57N 37°42' W 000°48'0 0.0
2017-Nov-18 20:27N 37°42' W 000°48'0 0.0
2017-Nov-18 19:45N 37°42' W 000°48'0 0.0
2017-Nov-18 19:27N 37°42' W 000°48'0 0.0
2017-Nov-18 18:51N 37°42' W 000°48'0 0.0
2017-Nov-18 18:27N 37°42' W 000°48'0 0.0
2017-Nov-18 17:57N 37°42' W 000°48'0 0.0
2017-Nov-18 17:27N 37°42' W 000°48'0 0.0
2017-Nov-18 16:51N 37°42' W 000°48'2 4.6
2017-Nov-18 16:28N 37°44' W 000°47'2 4.9
2017-Nov-18 15:58N 37°45' W 000°44'0 0.0
2017-Nov-18 15:28N 37°45' W 000°45'0 0.0
2017-Nov-18 14:58N 37°45' W 000°45'0 0.1
2017-Nov-18 14:30N 37°45' W 000°45'611.4
2017-Nov-18 14:00N 37°50' W 000°42'815.6
2017-Nov-18 13:30N 37°58' W 000°41'0 0.7
2017-Nov-18 12:59N 37°58' W 000°41'0 0.4
2017-Nov-18 12:27N 37°58' W 000°41'0 0.0
2017-Nov-18 12:00N 37°58' W 000°41'0 0.0
2017-Nov-18 11:27N 37°58' W 000°41'0 0.0
2017-Nov-18 11:00N 37°58' W 000°41'0 0.0
2017-Nov-18 10:15N 37°58' W 000°41'0 0.0
2017-Nov-18 09:57N 37°58' W 000°41'0 0.0
2017-Nov-18 09:24N 37°58' W 000°41'0 0.0
2017-Nov-18 08:57N 37°58' W 000°41'0 0.0
2017-Nov-18 08:21N 37°58' W 000°41'0 0.0
2017-Nov-18 07:51N 37°58' W 000°41'0 0.0
2017-Nov-18 07:30N 37°58' W 000°41'0 0.0
2017-Nov-18 06:54N 37°58' W 000°41'0 0.0
2017-Nov-18 06:24N 37°58' W 000°41'0 0.0
2017-Nov-18 05:57N 37°58' W 000°41'0 0.0
2017-Nov-18 05:30N 37°58' W 000°41'0 0.0
2017-Nov-18 05:00N 37°58' W 000°41'0 0.0
2017-Nov-18 04:30N 37°58' W 000°41'0 0.0
2017-Nov-18 03:57N 37°58' W 000°41'0 0.0
2017-Nov-18 03:27N 37°58' W 000°41'0 0.0
2017-Nov-18 02:51N 37°58' W 000°41'0 0.0
2017-Nov-18 02:21N 37°58' W 000°41'0 0.0
2017-Nov-18 01:57N 37°58' W 000°41'0 0.0
2017-Nov-18 01:24N 37°58' W 000°41'0 0.0
2017-Nov-18 00:57N 37°58' W 000°41'0 0.0
2017-Nov-18 00:27N 37°58' W 000°41'0 0.0
2017-Nov-17 23:57N 37°58' W 000°41'0 0.0
2017-Nov-17 23:24N 37°58' W 000°41'0 0.0
2017-Nov-17 22:54N 37°58' W 000°41'0 0.0
2017-Nov-17 22:30N 37°58' W 000°41'0 0.0
2017-Nov-17 22:00N 37°58' W 000°41'0 0.0
2017-Nov-17 21:30N 37°58' W 000°41'0 0.0
2017-Nov-17 21:00N 37°58' W 000°41'0 0.0
2017-Nov-17 20:27N 37°58' W 000°41'0 0.0
2017-Nov-17 19:57N 37°58' W 000°41'0 0.0
2017-Nov-17 19:30N 37°58' W 000°41'0 0.0
2017-Nov-17 18:51N 37°58' W 000°41'0 0.0
2017-Nov-17 18:24N 37°58' W 000°41'0 0.0
2017-Nov-17 18:00N 37°58' W 000°41'0 0.0
2017-Nov-17 17:30N 37°58' W 000°41'0 0.0
2017-Nov-17 17:00N 37°58' W 000°41'0 0.0
2017-Nov-17 16:09N 37°58' W 000°41'0 0.0
2017-Nov-17 15:51N 37°58' W 000°41'0 0.0
2017-Nov-17 15:15N 37°58' W 000°41'0 0.0
2017-Nov-17 14:48N 37°58' W 000°41'0 0.0
2017-Nov-17 14:24N 37°58' W 000°41'0 0.0
2017-Nov-17 13:54N 37°58' W 000°41'0 0.0
2017-Nov-17 13:21N 37°58' W 000°41'0 0.0
2017-Nov-17 12:57N 37°58' W 000°41'0 0.0
2017-Nov-17 12:21N 37°58' W 000°41'0 0.0
2017-Nov-17 11:57N 37°58' W 000°41'0 0.0
2017-Nov-17 11:30N 37°58' W 000°41'0 0.0
2017-Nov-17 10:51N 37°58' W 000°41'0 0.0
2017-Nov-17 10:27N 37°58' W 000°41'0 0.0
2017-Nov-17 09:48N 37°58' W 000°41'0 0.0
2017-Nov-17 09:30N 37°58' W 000°41'0 0.0
2017-Nov-17 08:57N 37°58' W 000°41'0 0.0
2017-Nov-17 08:30N 37°58' W 000°41'0 0.0
2017-Nov-17 07:54N 37°58' W 000°41'0 0.0
2017-Nov-17 07:30N 37°58' W 000°41'0 0.0
2017-Nov-17 06:51N 37°58' W 000°41'0 0.0
2017-Nov-17 06:24N 37°58' W 000°41'0 0.0
2017-Nov-17 05:57N 37°58' W 000°41'0 0.0
2017-Nov-17 05:30N 37°58' W 000°41'0 0.0
2017-Nov-17 05:00N 37°58' W 000°41'0 0.0
2017-Nov-17 04:30N 37°58' W 000°41'0 0.0
2017-Nov-17 03:54N 37°58' W 000°41'0 0.0
2017-Nov-17 03:30N 37°58' W 000°41'0 0.0
2017-Nov-17 03:00N 37°58' W 000°41'0 0.0
2017-Nov-17 02:27N 37°58' W 000°41'0 0.0
2017-Nov-17 01:57N 37°58' W 000°41'0 0.0
2017-Nov-17 01:30N 37°58' W 000°41'0 0.0
2017-Nov-17 00:57N 37°58' W 000°41'0 0.0
2017-Nov-17 00:30N 37°58' W 000°41'0 0.0
2017-Nov-17 00:00N 37°58' W 000°41'0 0.0
2017-Nov-16 23:30N 37°58' W 000°41'0 0.0
2017-Nov-16 23:00N 37°58' W 000°41'0 0.0
2017-Nov-16 22:24N 37°58' W 000°41'0 0.0
2017-Nov-16 21:57N 37°58' W 000°41'0 0.0
2017-Nov-16 21:27N 37°58' W 000°41'0 0.0
2017-Nov-16 21:00N 37°58' W 000°41'0 0.0
2017-Nov-16 20:27N 37°58' W 000°41'0 0.0
2017-Nov-16 19:57N 37°58' W 000°41'0 0.0
2017-Nov-16 19:27N 37°58' W 000°41'0 0.0
2017-Nov-16 19:00N 37°58' W 000°41'0 0.0
2017-Nov-16 18:18N 37°58' W 000°41'0 0.0
2017-Nov-16 18:00N 37°58' W 000°41'0 0.0
2017-Nov-16 17:30N 37°58' W 000°41'0 0.0
2017-Nov-16 16:57N 37°58' W 000°41'0 0.0
2017-Nov-16 16:30N 37°58' W 000°41'0 0.0
2017-Nov-16 15:54N 37°58' W 000°41'0 0.0
2017-Nov-16 15:30N 37°58' W 000°41'0 0.0
2017-Nov-16 15:00N 37°58' W 000°41'0 0.0
2017-Nov-16 14:30N 37°58' W 000°41'0 0.0
2017-Nov-16 14:00N 37°58' W 000°41'0 0.0
2017-Nov-16 13:30N 37°58' W 000°41'0 0.0
2017-Nov-16 13:00N 37°58' W 000°41'0 0.0
2017-Nov-16 12:30N 37°58' W 000°41'0 0.0
2017-Nov-16 11:54N 37°58' W 000°41'0 0.0
2017-Nov-16 11:21N 37°58' W 000°41'0 0.0
2017-Nov-16 11:00N 37°58' W 000°41'0 0.0
2017-Nov-16 10:27N 37°58' W 000°41'0 0.0
2017-Nov-16 10:00N 37°58' W 000°41'0 0.0
2017-Nov-16 09:21N 37°58' W 000°41'0 0.0
2017-Nov-16 09:00N 37°58' W 000°41'0 0.0
2017-Nov-16 08:30N 37°58' W 000°41'0 0.0
2017-Nov-16 07:24N 37°58' W 000°41'0 0.0
2017-Nov-16 03:39N 37°58' W 000°41'0 0.0
2017-Nov-16 03:27N 37°58' W 000°41'0 0.0
2017-Nov-16 02:48N 37°58' W 000°41'0 0.0
2017-Nov-16 01:57N 37°58' W 000°41'0 0.0
2017-Nov-16 01:24N 37°58' W 000°41'0 0.0
2017-Nov-16 00:57N 37°58' W 000°41'0 0.0
2017-Nov-16 00:24N 37°58' W 000°41'0 0.0
2017-Nov-16 00:00N 37°58' W 000°41'0 0.0
2017-Nov-15 23:27N 37°58' W 000°41'0 0.0
2017-Nov-15 23:00N 37°58' W 000°41'0 0.0
2017-Nov-15 22:30N 37°58' W 000°41'0 0.0
2017-Nov-15 22:00N 37°58' W 000°41'0 0.0
2017-Nov-15 21:27N 37°58' W 000°41'0 0.0
2017-Nov-15 21:00N 37°58' W 000°41'0 0.0
2017-Nov-15 20:18N 37°58' W 000°41'0 0.0
2017-Nov-15 20:00N 37°58' W 000°41'0 0.0
2017-Nov-15 19:27N 37°58' W 000°41'0 0.0
2017-Nov-15 18:54N 37°58' W 000°41'0 0.0
2017-Nov-15 18:24N 37°58' W 000°41'0 0.0
2017-Nov-15 18:00N 37°58' W 000°41'0 0.0
2017-Nov-15 17:30N 37°58' W 000°41'0 0.0
2017-Nov-15 16:57N 37°58' W 000°41'0 0.0
2017-Nov-15 16:30N 37°58' W 000°41'0 0.0
2017-Nov-15 16:00N 37°58' W 000°41'0 0.0
2017-Nov-15 15:27N 37°58' W 000°41'0 0.0
2017-Nov-15 15:00N 37°58' W 000°41'0 0.0
2017-Nov-15 14:30N 37°58' W 000°41'0 0.0
2017-Nov-15 14:00N 37°58' W 000°41'0 0.0
2017-Nov-15 13:24N 37°58' W 000°41'0 0.0
2017-Nov-15 12:51N 37°58' W 000°41'0 0.0
2017-Nov-15 12:24N 37°58' W 000°41'0 0.0
2017-Nov-15 11:57N 37°58' W 000°41'0 0.0
2017-Nov-15 11:30N 37°58' W 000°41'0 0.0
2017-Nov-15 10:54N 37°58' W 000°41'0 0.0
2017-Nov-15 10:15N 37°58' W 000°41'0 0.0
2017-Nov-15 10:00N 37°58' W 000°41'0 0.0
2017-Nov-15 09:15N 37°58' W 000°41'0 0.0
2017-Nov-15 09:00N 37°58' W 000°41'0 0.0
2017-Nov-15 08:30N 37°58' W 000°41'0 0.0
2017-Nov-15 07:48N 37°58' W 000°41'0 0.0
2017-Nov-15 07:30N 37°58' W 000°41'0 0.0
2017-Nov-15 07:00N 37°58' W 000°41'0 0.0
2017-Nov-15 06:30N 37°58' W 000°41'0 0.0
2017-Nov-15 06:00N 37°58' W 000°41'0 0.0
2017-Nov-15 05:09N 37°58' W 000°41'0 0.0
2017-Nov-15 04:51N 37°58' W 000°41'0 0.0
2017-Nov-15 04:30N 37°58' W 000°41'0 0.0
2017-Nov-15 04:00N 37°58' W 000°41'0 0.0
2017-Nov-15 03:30N 37°58' W 000°41'0 0.0
2017-Nov-15 02:57N 37°58' W 000°41'0 0.0
2017-Nov-15 02:27N 37°58' W 000°41'0 0.0
2017-Nov-15 01:45N 37°58' W 000°41'0 0.0
2017-Nov-15 01:27N 37°58' W 000°41'0 0.0
2017-Nov-15 00:51N 37°58' W 000°41'0 0.0
2017-Nov-15 00:24N 37°58' W 000°41'0 0.0
2017-Nov-15 00:00N 37°58' W 000°41'0 0.0
2017-Nov-14 23:30N 37°58' W 000°41'0 0.0
2017-Nov-14 23:00N 37°58' W 000°41'0 0.0
2017-Nov-14 22:27N 37°58' W 000°41'0 0.0
2017-Nov-14 21:51N 37°58' W 000°41'0 0.0
2017-Nov-14 21:15N 37°58' W 000°41'0 0.0
2017-Nov-14 21:00N 37°58' W 000°41'0 0.0
2017-Nov-14 20:30N 37°58' W 000°41'0 0.0
2017-Nov-14 19:36N 37°58' W 000°41'0 0.0
2017-Nov-14 19:24N 37°58' W 000°41'0 0.0
2017-Nov-14 18:57N 37°58' W 000°41'0 0.0
2017-Nov-14 18:30N 37°58' W 000°41'0 0.0
2017-Nov-14 17:42N 37°58' W 000°41'0 0.0
2017-Nov-14 17:30N 37°58' W 000°41'0 0.0
2017-Nov-14 17:00N 37°58' W 000°41'0 0.0
2017-Nov-14 16:30N 37°58' W 000°41'0 0.0
2017-Nov-14 16:00N 37°58' W 000°41'0 0.0
2017-Nov-14 15:24N 37°58' W 000°41'0 0.0
2017-Nov-14 15:00N 37°58' W 000°41'0 0.0
2017-Nov-14 14:27N 37°58' W 000°41'0 0.0
2017-Nov-14 14:00N 37°58' W 000°41'0 0.0
2017-Nov-14 13:27N 37°58' W 000°41'0 0.0
2017-Nov-14 13:00N 37°58' W 000°41'0 0.0
2017-Nov-14 12:27N 37°58' W 000°41'0 0.0
2017-Nov-14 11:45N 37°58' W 000°41'0 0.0
2017-Nov-14 11:18N 37°58' W 000°41'0 0.0
2017-Nov-14 10:57N 37°58' W 000°41'0 0.0
2017-Nov-14 10:30N 37°58' W 000°41'0 0.0
2017-Nov-14 09:57N 37°58' W 000°41'0 0.0
2017-Nov-14 09:30N 37°58' W 000°41'  
Track history (hours):
 
Tides and Currents Weather Stations Pressure Air Temp Water Temp Dewpoint Dewpoint Depression Visibility Wind Speed Wind Dir Waves Ship Positions

El Tempranillo

Last reported at 2017-Nov-20 00:24 UTC. Time now 2018-Jan-21 10:16 UTC.
Position N 37°58' W 000°41'.
Warning: this ship's position is months out of date.

Length 14 m.

Type: Cargo ship. MMSI: 244770790.

Date/timePositionNaut miles runAvg speedWind from/ knotsBaromVisibWave heightAir tempDewpointWater temp
2017-Nov-20 00:24N 37°58' W 000°41'0 0.0
2017-Nov-19 23:48N 37°58' W 000°41'0 0.0
2017-Nov-19 23:24N 37°58' W 000°41'0 0.0
2017-Nov-19 22:57N 37°58' W 000°41'0 0.0
2017-Nov-19 22:30N 37°58' W 000°41'0 0.0
2017-Nov-19 21:57N 37°58' W 000°41'0 0.0
2017-Nov-19 21:24N 37°58' W 000°41'0 0.0
2017-Nov-19 20:57N 37°58' W 000°41'0 0.0
2017-Nov-19 20:30N 37°58' W 000°41'0 0.0
2017-Nov-19 19:48N 37°58' W 000°41'0 0.0
2017-Nov-19 18:51N 37°58' W 000°41'0 0.0
2017-Nov-19 18:24N 37°58' W 000°41'0 0.0
2017-Nov-19 17:54N 37°58' W 000°41'0 0.0
2017-Nov-19 17:30N 37°58' W 000°41'0 0.0
2017-Nov-19 16:54N 37°58' W 000°41'0 0.0
2017-Nov-19 16:18N 37°58' W 000°41'0 0.0
2017-Nov-19 15:57N 37°58' W 000°41'0 0.0
2017-Nov-19 15:30N 37°58' W 000°41'0 0.0
2017-Nov-19 15:00N 37°58' W 000°41'0 0.0
2017-Nov-19 14:30N 37°58' W 000°41'0 0.0
2017-Nov-19 13:45N 37°58' W 000°41'0 0.0
2017-Nov-19 13:30N 37°58' W 000°41'0 0.0
2017-Nov-19 12:57N 37°58' W 000°41'0 0.0
2017-Nov-19 12:27N 37°58' W 000°41'0 0.0
2017-Nov-19 12:00N 37°58' W 000°41'17 7.2
2017-Nov-19 09:38N 37°42' W 000°48'0 0.3
2017-Nov-19 08:33N 37°42' W 000°48'0 0.0
2017-Nov-19 08:15N 37°42' W 000°48'0 0.0
2017-Nov-19 06:51N 37°42' W 000°48'0 0.0
2017-Nov-19 05:03N 37°42' W 000°48'0 0.0
2017-Nov-19 04:51N 37°42' W 000°48'0 0.0
2017-Nov-19 03:21N 37°42' W 000°48'0 0.0
2017-Nov-19 02:51N 37°42' W 000°48'0 0.0
2017-Nov-19 02:09N 37°42' W 000°48'0 0.0
2017-Nov-19 01:39N 37°42' W 000°48'0 0.0
2017-Nov-19 01:27N 37°42' W 000°48'0 0.0
2017-Nov-19 00:45N 37°42' W 000°48'0 0.0
2017-Nov-19 00:27N 37°42' W 000°48'0 0.0
2017-Nov-18 23:39N 37°42' W 000°48'0 0.0
2017-Nov-18 23:27N 37°42' W 000°48'0 0.0
2017-Nov-18 22:51N 37°42' W 000°48'0 0.0
2017-Nov-18 21:33N 37°42' W 000°48'0 0.0
2017-Nov-18 21:27N 37°42' W 000°48'0 0.0
2017-Nov-18 20:57N 37°42' W 000°48'0 0.0
2017-Nov-18 20:27N 37°42' W 000°48'0 0.0
2017-Nov-18 19:45N 37°42' W 000°48'0 0.0
2017-Nov-18 19:27N 37°42' W 000°48'0 0.0
2017-Nov-18 18:51N 37°42' W 000°48'0 0.0
2017-Nov-18 18:27N 37°42' W 000°48'0 0.0
2017-Nov-18 17:57N 37°42' W 000°48'0 0.0
2017-Nov-18 17:27N 37°42' W 000°48'0 0.0
2017-Nov-18 16:51N 37°42' W 000°48'2 4.6
2017-Nov-18 16:28N 37°44' W 000°47'2 4.9
2017-Nov-18 15:58N 37°45' W 000°44'0 0.0
2017-Nov-18 15:28N 37°45' W 000°45'0 0.0
2017-Nov-18 14:58N 37°45' W 000°45'0 0.1
2017-Nov-18 14:30N 37°45' W 000°45'611.4
2017-Nov-18 14:00N 37°50' W 000°42'815.6
2017-Nov-18 13:30N 37°58' W 000°41'0 0.7
2017-Nov-18 12:59N 37°58' W 000°41'0 0.4
2017-Nov-18 12:27N 37°58' W 000°41'0 0.0
2017-Nov-18 12:00N 37°58' W 000°41'0 0.0
2017-Nov-18 11:27N 37°58' W 000°41'0 0.0
2017-Nov-18 11:00N 37°58' W 000°41'0 0.0
2017-Nov-18 10:15N 37°58' W 000°41'0 0.0
2017-Nov-18 09:57N 37°58' W 000°41'0 0.0
2017-Nov-18 09:24N 37°58' W 000°41'0 0.0
2017-Nov-18 08:57N 37°58' W 000°41'0 0.0
2017-Nov-18 08:21N 37°58' W 000°41'0 0.0
2017-Nov-18 07:51N 37°58' W 000°41'0 0.0
2017-Nov-18 07:30N 37°58' W 000°41'0 0.0
2017-Nov-18 06:54N 37°58' W 000°41'0 0.0
2017-Nov-18 06:24N 37°58' W 000°41'0 0.0
2017-Nov-18 05:57N 37°58' W 000°41'0 0.0
2017-Nov-18 05:30N 37°58' W 000°41'0 0.0
2017-Nov-18 05:00N 37°58' W 000°41'0 0.0
2017-Nov-18 04:30N 37°58' W 000°41'0 0.0
2017-Nov-18 03:57N 37°58' W 000°41'0 0.0
2017-Nov-18 03:27N 37°58' W 000°41'0 0.0
2017-Nov-18 02:51N 37°58' W 000°41'0 0.0
2017-Nov-18 02:21N 37°58' W 000°41'0 0.0
2017-Nov-18 01:57N 37°58' W 000°41'0 0.0
2017-Nov-18 01:24N 37°58' W 000°41'0 0.0
2017-Nov-18 00:57N 37°58' W 000°41'0 0.0
2017-Nov-18 00:27N 37°58' W 000°41'0 0.0
2017-Nov-17 23:57N 37°58' W 000°41'0 0.0
2017-Nov-17 23:24N 37°58' W 000°41'0 0.0
2017-Nov-17 22:54N 37°58' W 000°41'0 0.0
2017-Nov-17 22:30N 37°58' W 000°41'0 0.0
2017-Nov-17 22:00N 37°58' W 000°41'0 0.0
2017-Nov-17 21:30N 37°58' W 000°41'0 0.0
2017-Nov-17 21:00N 37°58' W 000°41'0 0.0
2017-Nov-17 20:27N 37°58' W 000°41'0 0.0
2017-Nov-17 19:57N 37°58' W 000°41'0 0.0
2017-Nov-17 19:30N 37°58' W 000°41'0 0.0
2017-Nov-17 18:51N 37°58' W 000°41'0 0.0
2017-Nov-17 18:24N 37°58' W 000°41'0 0.0
2017-Nov-17 18:00N 37°58' W 000°41'0 0.0
2017-Nov-17 17:30N 37°58' W 000°41'0 0.0
2017-Nov-17 17:00N 37°58' W 000°41'0 0.0
2017-Nov-17 16:09N 37°58' W 000°41'0 0.0
2017-Nov-17 15:51N 37°58' W 000°41'0 0.0
2017-Nov-17 15:15N 37°58' W 000°41'0 0.0
2017-Nov-17 14:48N 37°58' W 000°41'0 0.0
2017-Nov-17 14:24N 37°58' W 000°41'0 0.0
2017-Nov-17 13:54N 37°58' W 000°41'0 0.0
2017-Nov-17 13:21N 37°58' W 000°41'0 0.0
2017-Nov-17 12:57N 37°58' W 000°41'0 0.0
2017-Nov-17 12:21N 37°58' W 000°41'0 0.0
2017-Nov-17 11:57N 37°58' W 000°41'0 0.0
2017-Nov-17 11:30N 37°58' W 000°41'0 0.0
2017-Nov-17 10:51N 37°58' W 000°41'0 0.0
2017-Nov-17 10:27N 37°58' W 000°41'0 0.0
2017-Nov-17 09:48N 37°58' W 000°41'0 0.0
2017-Nov-17 09:30N 37°58' W 000°41'0 0.0
2017-Nov-17 08:57N 37°58' W 000°41'0 0.0
2017-Nov-17 08:30N 37°58' W 000°41'0 0.0
2017-Nov-17 07:54N 37°58' W 000°41'0 0.0
2017-Nov-17 07:30N 37°58' W 000°41'0 0.0
2017-Nov-17 06:51N 37°58' W 000°41'0 0.0
2017-Nov-17 06:24N 37°58' W 000°41'0 0.0
2017-Nov-17 05:57N 37°58' W 000°41'0 0.0
2017-Nov-17 05:30N 37°58' W 000°41'0 0.0
2017-Nov-17 05:00N 37°58' W 000°41'0 0.0
2017-Nov-17 04:30N 37°58' W 000°41'0 0.0
2017-Nov-17 03:54N 37°58' W 000°41'0 0.0
2017-Nov-17 03:30N 37°58' W 000°41'0 0.0
2017-Nov-17 03:00N 37°58' W 000°41'0 0.0
2017-Nov-17 02:27N 37°58' W 000°41'0 0.0
2017-Nov-17 01:57N 37°58' W 000°41'0 0.0
2017-Nov-17 01:30N 37°58' W 000°41'0 0.0
2017-Nov-17 00:57N 37°58' W 000°41'0 0.0
2017-Nov-17 00:30N 37°58' W 000°41'0 0.0
2017-Nov-17 00:00N 37°58' W 000°41'0 0.0
2017-Nov-16 23:30N 37°58' W 000°41'0 0.0
2017-Nov-16 23:00N 37°58' W 000°41'0 0.0
2017-Nov-16 22:24N 37°58' W 000°41'0 0.0
2017-Nov-16 21:57N 37°58' W 000°41'0 0.0
2017-Nov-16 21:27N 37°58' W 000°41'0 0.0
2017-Nov-16 21:00N 37°58' W 000°41'0 0.0
2017-Nov-16 20:27N 37°58' W 000°41'0 0.0
2017-Nov-16 19:57N 37°58' W 000°41'0 0.0
2017-Nov-16 19:27N 37°58' W 000°41'0 0.0
2017-Nov-16 19:00N 37°58' W 000°41'0 0.0
2017-Nov-16 18:18N 37°58' W 000°41'0 0.0
2017-Nov-16 18:00N 37°58' W 000°41'0 0.0
2017-Nov-16 17:30N 37°58' W 000°41'0 0.0
2017-Nov-16 16:57N 37°58' W 000°41'0 0.0
2017-Nov-16 16:30N 37°58' W 000°41'0 0.0
2017-Nov-16 15:54N 37°58' W 000°41'0 0.0
2017-Nov-16 15:30N 37°58' W 000°41'0 0.0
2017-Nov-16 15:00N 37°58' W 000°41'0 0.0
2017-Nov-16 14:30N 37°58' W 000°41'0 0.0
2017-Nov-16 14:00N 37°58' W 000°41'0 0.0
2017-Nov-16 13:30N 37°58' W 000°41'0 0.0
2017-Nov-16 13:00N 37°58' W 000°41'0 0.0
2017-Nov-16 12:30N 37°58' W 000°41'0 0.0
2017-Nov-16 11:54N 37°58' W 000°41'0 0.0
2017-Nov-16 11:21N 37°58' W 000°41'0 0.0
2017-Nov-16 11:00N 37°58' W 000°41'0 0.0
2017-Nov-16 10:27N 37°58' W 000°41'0 0.0
2017-Nov-16 10:00N 37°58' W 000°41'0 0.0
2017-Nov-16 09:21N 37°58' W 000°41'0 0.0
2017-Nov-16 09:00N 37°58' W 000°41'0 0.0
2017-Nov-16 08:30N 37°58' W 000°41'0 0.0
2017-Nov-16 07:24N 37°58' W 000°41'0 0.0
2017-Nov-16 03:39N 37°58' W 000°41'0 0.0
2017-Nov-16 03:27N 37°58' W 000°41'0 0.0
2017-Nov-16 02:48N 37°58' W 000°41'0 0.0
2017-Nov-16 01:57N 37°58' W 000°41'0 0.0
2017-Nov-16 01:24N 37°58' W 000°41'0 0.0
2017-Nov-16 00:57N 37°58' W 000°41'0 0.0
2017-Nov-16 00:24N 37°58' W 000°41'0 0.0
2017-Nov-16 00:00N 37°58' W 000°41'0 0.0
2017-Nov-15 23:27N 37°58' W 000°41'0 0.0
2017-Nov-15 23:00N 37°58' W 000°41'0 0.0
2017-Nov-15 22:30N 37°58' W 000°41'0 0.0
2017-Nov-15 22:00N 37°58' W 000°41'0 0.0
2017-Nov-15 21:27N 37°58' W 000°41'0 0.0
2017-Nov-15 21:00N 37°58' W 000°41'0 0.0
2017-Nov-15 20:18N 37°58' W 000°41'0 0.0
2017-Nov-15 20:00N 37°58' W 000°41'0 0.0
2017-Nov-15 19:27N 37°58' W 000°41'0 0.0
2017-Nov-15 18:54N 37°58' W 000°41'0 0.0
2017-Nov-15 18:24N 37°58' W 000°41'0 0.0
2017-Nov-15 18:00N 37°58' W 000°41'0 0.0
2017-Nov-15 17:30N 37°58' W 000°41'0 0.0
2017-Nov-15 16:57N 37°58' W 000°41'0 0.0
2017-Nov-15 16:30N 37°58' W 000°41'0 0.0
2017-Nov-15 16:00N 37°58' W 000°41'0 0.0
2017-Nov-15 15:27N 37°58' W 000°41'0 0.0
2017-Nov-15 15:00N 37°58' W 000°41'0 0.0
2017-Nov-15 14:30N 37°58' W 000°41'0 0.0
2017-Nov-15 14:00N 37°58' W 000°41'0 0.0
2017-Nov-15 13:24N 37°58' W 000°41'0 0.0
2017-Nov-15 12:51N 37°58' W 000°41'0 0.0
2017-Nov-15 12:24N 37°58' W 000°41'0 0.0
2017-Nov-15 11:57N 37°58' W 000°41'0 0.0
2017-Nov-15 11:30N 37°58' W 000°41'0 0.0
2017-Nov-15 10:54N 37°58' W 000°41'0 0.0
2017-Nov-15 10:15N 37°58' W 000°41'0 0.0
2017-Nov-15 10:00N 37°58' W 000°41'0 0.0
2017-Nov-15 09:15N 37°58' W 000°41'0 0.0
2017-Nov-15 09:00N 37°58' W 000°41'0 0.0
2017-Nov-15 08:30N 37°58' W 000°41'0 0.0
2017-Nov-15 07:48N 37°58' W 000°41'0 0.0
2017-Nov-15 07:30N 37°58' W 000°41'0 0.0
2017-Nov-15 07:00N 37°58' W 000°41'0 0.0
2017-Nov-15 06:30N 37°58' W 000°41'0 0.0
2017-Nov-15 06:00N 37°58' W 000°41'0 0.0
2017-Nov-15 05:09N 37°58' W 000°41'0 0.0
2017-Nov-15 04:51N 37°58' W 000°41'0 0.0
2017-Nov-15 04:30N 37°58' W 000°41'0 0.0
2017-Nov-15 04:00N 37°58' W 000°41'0 0.0
2017-Nov-15 03:30N 37°58' W 000°41'0 0.0
2017-Nov-15 02:57N 37°58' W 000°41'0 0.0
2017-Nov-15 02:27N 37°58' W 000°41'0 0.0
2017-Nov-15 01:45N 37°58' W 000°41'0 0.0
2017-Nov-15 01:27N 37°58' W 000°41'0 0.0
2017-Nov-15 00:51N 37°58' W 000°41'0 0.0
2017-Nov-15 00:24N 37°58' W 000°41'0 0.0
2017-Nov-15 00:00N 37°58' W 000°41'0 0.0
2017-Nov-14 23:30N 37°58' W 000°41'0 0.0
2017-Nov-14 23:00N 37°58' W 000°41'0 0.0
2017-Nov-14 22:27N 37°58' W 000°41'0 0.0
2017-Nov-14 21:51N 37°58' W 000°41'0 0.0
2017-Nov-14 21:15N 37°58' W 000°41'0 0.0
2017-Nov-14 21:00N 37°58' W 000°41'0 0.0
2017-Nov-14 20:30N 37°58' W 000°41'0 0.0
2017-Nov-14 19:36N 37°58' W 000°41'0 0.0
2017-Nov-14 19:24N 37°58' W 000°41'0 0.0
2017-Nov-14 18:57N 37°58' W 000°41'0 0.0
2017-Nov-14 18:30N 37°58' W 000°41'0 0.0
2017-Nov-14 17:42N 37°58' W 000°41'0 0.0
2017-Nov-14 17:30N 37°58' W 000°41'0 0.0
2017-Nov-14 17:00N 37°58' W 000°41'0 0.0
2017-Nov-14 16:30N 37°58' W 000°41'0 0.0
2017-Nov-14 16:00N 37°58' W 000°41'0 0.0
2017-Nov-14 15:24N 37°58' W 000°41'0 0.0
2017-Nov-14 15:00N 37°58' W 000°41'0 0.0
2017-Nov-14 14:27N 37°58' W 000°41'0 0.0
2017-Nov-14 14:00N 37°58' W 000°41'0 0.0
2017-Nov-14 13:27N 37°58' W 000°41'0 0.0
2017-Nov-14 13:00N 37°58' W 000°41'0 0.0
2017-Nov-14 12:27N 37°58' W 000°41'0 0.0
2017-Nov-14 11:45N 37°58' W 000°41'0 0.0
2017-Nov-14 11:18N 37°58' W 000°41'0 0.0
2017-Nov-14 10:57N 37°58' W 000°41'0 0.0
2017-Nov-14 10:30N 37°58' W 000°41'0 0.0
2017-Nov-14 09:57N 37°58' W 000°41'0 0.0
2017-Nov-14 09:30N 37°58' W 000°41'  

Dump ship's entire track history